Time;durP1;ratioP1;P1;durP2;ratioP2;P2;SDS_P1;SDS_P2;PMS_P1;PMS_P2;Temp;Humidity;BMP_temperature;BMP_pressure;BME280_temperature;BME280_humidity;BME280_pressure;Samples;Min_cycle;Max_cycle;Signal;HPM_P1;HPM_P2
2023/09/11 00:00:28;;;;;;;20.00;8.38;;;20.20;99.90;;;;;;5018656;28;20091;-70
2023/09/11 00:02:53;;;;;;;11.75;6.90;;;20.10;99.90;;;;;;5018149;27;20087;-70
2023/09/11 00:05:19;;;;;;;16.98;7.57;;;20.20;99.90;;;;;;5098439;27;21522;-71
2023/09/11 00:07:45;;;;;;;13.90;7.50;;;20.20;99.90;;;;;;5013447;28;20050;-71
2023/09/11 00:10:10;;;;;;;13.88;7.53;;;20.20;99.90;;;;;;5004632;28;20042;-70
2023/09/11 00:12:36;;;;;;;15.05;8.20;;;20.20;99.90;;;;;;5027667;27;20407;-70
2023/09/11 00:15:02;;;;;;;15.95;7.32;;;20.20;99.90;;;;;;5029225;27;20119;-70
2023/09/11 00:17:27;;;;;;;13.30;7.45;;;20.20;99.90;;;;;;4999042;28;20046;-70
2023/09/11 00:19:53;;;;;;;13.73;7.80;;;20.20;99.90;;;;;;5009855;28;20415;-71
2023/09/11 00:22:19;;;;;;;15.88;8.23;;;20.20;99.90;;;;;;5014892;28;20113;-71
2023/09/11 00:24:45;;;;;;;15.57;8.02;;;20.10;99.90;;;;;;5015424;28;20083;-70
2023/09/11 00:27:10;;;;;;;13.43;7.28;;;20.10;99.90;;;;;;5021720;28;20055;-70
2023/09/11 00:29:36;;;;;;;13.18;7.53;;;20.10;99.90;;;;;;5013920;28;20034;-71
2023/09/11 00:32:02;;;;;;;16.83;7.60;;;20.10;99.90;;;;;;5016799;28;20046;-71
2023/09/11 00:34:29;;;;;;;14.25;8.05;;;20.10;99.90;;;;;;5009552;28;20135;-70
2023/09/11 00:36:55;;;;;;;11.93;7.70;;;20.00;99.90;;;;;;5023490;28;21832;-70
2023/09/11 00:39:21;;;;;;;15.20;7.35;;;20.10;99.90;;;;;;5013653;28;20117;-70
2023/09/11 00:41:47;;;;;;;21.10;8.45;;;20.10;99.90;;;;;;5020806;28;20200;-70
2023/09/11 00:44:12;;;;;;;13.63;8.05;;;20.00;99.90;;;;;;5018402;28;20025;-70
2023/09/11 00:46:39;;;;;;;15.25;7.97;;;20.00;99.90;;;;;;5031814;27;20533;-70
2023/09/11 00:49:06;;;;;;;11.73;7.38;;;20.00;99.90;;;;;;5014801;28;20042;-70
2023/09/11 00:51:32;;;;;;;14.57;7.80;;;20.00;99.90;;;;;;5017994;28;20112;-71
2023/09/11 00:53:58;;;;;;;17.35;8.23;;;20.00;99.90;;;;;;5016499;28;20037;-71
2023/09/11 00:56:24;;;;;;;12.90;7.50;;;20.00;99.90;;;;;;5023191;28;20138;-70
2023/09/11 00:58:50;;;;;;;14.60;8.30;;;20.00;99.90;;;;;;5021556;28;20034;-70
2023/09/11 01:01:17;;;;;;;14.35;7.97;;;19.90;99.90;;;;;;5014608;28;20135;-71
2023/09/11 01:03:44;;;;;;;18.15;7.97;;;19.90;99.90;;;;;;5015365;28;21526;-70
2023/09/11 01:06:10;;;;;;;15.40;7.65;;;19.90;99.90;;;;;;5020375;28;20184;-70
2023/09/11 01:08:36;;;;;;;11.88;7.65;;;19.90;99.90;;;;;;5020790;28;20573;-71
2023/09/11 01:11:01;;;;;;;12.55;7.75;;;19.90;99.90;;;;;;5020343;28;20029;-70
2023/09/11 01:13:27;;;;;;;13.77;8.00;;;19.90;99.90;;;;;;5020091;28;20314;-71
2023/09/11 01:16:03;;;;;;;14.23;8.02;;;19.90;99.90;;;;;;5019787;28;20523;-70
2023/09/11 01:18:46;;;;;;;14.52;7.78;;;19.90;99.90;;;;;;5014888;28;20045;-70
2023/09/11 01:21:30;;;;;;;13.50;7.63;;;19.90;99.90;;;;;;5009571;27;20046;-71
2023/09/11 01:24:11;;;;;;;17.45;8.20;;;19.90;99.90;;;;;;5020297;28;20041;-70
2023/09/11 01:27:08;;;;;;;19.00;8.75;;;19.90;99.90;;;;;;5019376;28;20406;-70
2023/09/11 01:29:34;;;;;;;14.50;7.88;;;19.80;99.90;;;;;;5017856;28;20503;-70
2023/09/11 01:32:02;;;;;;;15.80;7.93;;;19.80;99.90;;;;;;5012644;28;20049;-71
2023/09/11 01:34:28;;;;;;;13.40;7.78;;;19.80;99.90;;;;;;5016281;27;20115;-70
2023/09/11 01:36:53;;;;;;;12.45;7.80;;;19.80;99.90;;;;;;5017603;27;20033;-70
2023/09/11 01:39:19;;;;;;;13.88;7.88;;;19.80;99.90;;;;;;5015969;28;20087;-71
2023/09/11 01:41:47;;;;;;;15.70;8.52;;;19.80;99.90;;;;;;5021022;28;20677;-70
2023/09/11 01:44:27;;;;;;;16.30;7.22;;;19.80;99.90;;;;;;5032444;28;20039;-70
2023/09/11 01:46:55;;;;;;;11.57;7.45;;;19.80;99.90;;;;;;5118067;27;20112;-70
2023/09/11 01:49:22;;;;;;;18.55;8.18;;;19.70;99.90;;;;;;5023420;28;20575;-70
2023/09/11 01:51:51;;;;;;;14.13;7.60;;;19.80;99.90;;;;;;5014149;28;20117;-70
2023/09/11 01:54:17;;;;;;;14.90;7.75;;;19.80;99.90;;;;;;5019128;28;20037;-70
2023/09/11 01:56:42;;;;;;;16.23;7.75;;;19.80;99.90;;;;;;5013460;28;20038;-71
2023/09/11 01:59:08;;;;;;;16.52;8.15;;;19.80;99.90;;;;;;5000694;28;20098;-70
2023/09/11 02:01:34;;;;;;;14.52;8.32;;;19.80;99.90;;;;;;5020095;28;20048;-70
2023/09/11 02:03:59;;;;;;;12.70;7.03;;;19.80;99.90;;;;;;5014045;28;20053;-70
2023/09/11 02:06:25;;;;;;;15.20;8.43;;;19.70;99.90;;;;;;5016245;28;20042;-71
2023/09/11 02:08:50;;;;;;;14.35;7.55;;;19.70;99.90;;;;;;5006676;28;20171;-70
2023/09/11 02:11:16;;;;;;;13.40;7.50;;;19.70;99.90;;;;;;5017164;28;20033;-71
2023/09/11 02:13:41;;;;;;;13.23;7.90;;;19.70;99.90;;;;;;5012589;28;20037;-71
2023/09/11 02:16:07;;;;;;;15.48;7.25;;;19.70;99.90;;;;;;5018372;28;20398;-70
2023/09/11 02:18:33;;;;;;;14.50;7.75;;;19.70;99.90;;;;;;5015058;27;20423;-70
2023/09/11 02:20:58;;;;;;;9.75;6.53;;;19.70;99.90;;;;;;4984287;28;20049;-71
2023/09/11 02:23:24;;;;;;;18.25;7.47;;;19.70;99.90;;;;;;5019073;28;20081;-71
2023/09/11 02:25:51;;;;;;;14.23;7.38;;;19.60;99.90;;;;;;5016776;28;20033;-70
2023/09/11 02:28:16;;;;;;;14.85;7.03;;;19.60;99.90;;;;;;5020362;28;20046;-70
2023/09/11 02:30:42;;;;;;;13.23;7.18;;;19.60;99.90;;;;;;5017031;28;20078;-71
2023/09/11 02:33:07;;;;;;;18.95;7.93;;;19.60;99.90;;;;;;5006030;27;20753;-71
2023/09/11 02:35:33;;;;;;;17.30;7.38;;;19.60;99.90;;;;;;5015720;28;20033;-71
2023/09/11 02:37:59;;;;;;;10.73;7.40;;;19.60;99.90;;;;;;5016826;27;20045;-70
2023/09/11 02:40:25;;;;;;;12.05;6.82;;;19.60;99.90;;;;;;5015259;28;20300;-70
2023/09/11 02:42:50;;;;;;;13.93;7.03;;;19.60;99.90;;;;;;5110608;27;20052;-71
2023/09/11 02:45:16;;;;;;;12.00;6.55;;;19.60;99.90;;;;;;4994686;28;20041;-70
2023/09/11 02:47:41;;;;;;;15.70;6.75;;;19.60;99.90;;;;;;5013600;28;20132;-70
2023/09/11 02:50:07;;;;;;;14.75;7.25;;;19.50;99.90;;;;;;5113082;27;20090;-70
2023/09/11 02:52:33;;;;;;;13.30;7.13;;;19.60;99.90;;;;;;5019840;28;20030;-70
2023/09/11 02:54:59;;;;;;;14.90;7.43;;;19.60;99.90;;;;;;5013404;28;20044;-71
2023/09/11 02:57:24;;;;;;;14.70;6.53;;;19.50;99.90;;;;;;5018870;27;20040;-70
2023/09/11 02:59:54;;;;;;;12.77;6.57;;;19.50;99.90;;;;;;5014265;28;20615;-70
2023/09/11 03:02:23;;;;;;;14.02;6.78;;;19.50;99.90;;;;;;5013749;28;20045;-70
2023/09/11 03:04:52;;;;;;;14.23;6.82;;;19.50;99.90;;;;;;4999443;28;20087;-70
2023/09/11 03:07:20;;;;;;;17.73;7.15;;;19.50;99.90;;;;;;5014254;28;20042;-70
2023/09/11 03:09:46;;;;;;;11.00;5.82;;;19.50;99.90;;;;;;5009466;28;21556;-70
2023/09/11 03:12:11;;;;;;;13.60;6.82;;;19.50;99.90;;;;;;5013625;28;20029;-71
2023/09/11 03:14:39;;;;;;;11.05;6.18;;;19.40;99.90;;;;;;5016808;28;20030;-70
2023/09/11 03:17:04;;;;;;;12.63;6.55;;;19.50;99.90;;;;;;5015522;27;20066;-70
2023/09/11 03:19:33;;;;;;;15.77;7.30;;;19.50;99.90;;;;;;5016126;28;20512;-70
2023/09/11 03:21:58;;;;;;;12.65;7.25;;;19.40;99.90;;;;;;5014832;28;20049;-70
2023/09/11 03:24:24;;;;;;;12.32;7.07;;;19.40;99.90;;;;;;5015407;28;20065;-70
2023/09/11 03:26:50;;;;;;;18.70;7.40;;;19.40;99.90;;;;;;5014560;28;20041;-70
2023/09/11 03:29:15;;;;;;;19.38;7.68;;;19.40;99.90;;;;;;5009279;28;20081;-70
2023/09/11 03:31:41;;;;;;;17.45;7.50;;;19.40;99.90;;;;;;5010284;28;20495;-70
2023/09/11 03:34:06;;;;;;;16.52;7.63;;;19.40;99.90;;;;;;5011837;28;20041;-70
2023/09/11 03:36:32;;;;;;;16.38;8.25;;;19.30;99.90;;;;;;5009120;28;20680;-70
2023/09/11 03:38:58;;;;;;;15.45;7.50;;;19.30;99.90;;;;;;5012533;27;20180;-70
2023/09/11 03:41:23;;;;;;;12.93;7.30;;;19.40;99.90;;;;;;5022952;28;20420;-70
2023/09/11 03:43:49;;;;;;;11.02;6.68;;;19.30;99.90;;;;;;5025958;28;20068;-70
2023/09/11 03:46:14;;;;;;;15.88;6.65;;;19.30;99.90;;;;;;5023168;28;20120;-70
2023/09/11 03:48:41;;;;;;;15.48;7.03;;;19.30;99.90;;;;;;5012995;28;20137;-70
2023/09/11 03:51:06;;;;;;;21.85;7.85;;;19.30;99.90;;;;;;5011964;28;20045;-70
2023/09/11 03:53:32;;;;;;;13.02;7.40;;;19.30;99.90;;;;;;5015965;28;20045;-71
2023/09/11 03:55:58;;;;;;;18.25;8.18;;;19.30;99.90;;;;;;4997575;28;20029;-71
2023/09/11 03:58:24;;;;;;;16.05;7.88;;;19.30;99.90;;;;;;5011910;28;20070;-70
2023/09/11 04:00:49;;;;;;;13.60;7.18;;;19.30;99.90;;;;;;5017478;28;20048;-70
2023/09/11 04:03:15;;;;;;;12.77;7.50;;;19.30;99.90;;;;;;5017172;27;20042;-70
2023/09/11 04:05:41;;;;;;;16.40;7.88;;;19.30;99.90;;;;;;5016456;27;20084;-70
2023/09/11 04:08:06;;;;;;;15.70;7.30;;;19.20;99.90;;;;;;5010504;28;20033;-70
2023/09/11 04:10:32;;;;;;;15.15;7.50;;;19.30;99.90;;;;;;5022844;28;22028;-70
2023/09/11 04:12:57;;;;;;;14.77;8.00;;;19.30;99.90;;;;;;5017143;28;20387;-70
2023/09/11 04:15:23;;;;;;;13.15;6.63;;;19.20;99.90;;;;;;5013459;28;20046;-70
2023/09/11 04:17:48;;;;;;;17.13;7.85;;;19.20;99.90;;;;;;5014273;28;20946;-70
2023/09/11 04:20:14;;;;;;;13.63;7.55;;;19.20;99.90;;;;;;5016877;28;20049;-70
2023/09/11 04:22:39;;;;;;;17.90;8.23;;;19.20;99.90;;;;;;5013924;28;20510;-70
2023/09/11 04:25:05;;;;;;;15.25;6.68;;;19.20;99.90;;;;;;5008356;28;20467;-70
2023/09/11 04:27:31;;;;;;;16.88;8.65;;;19.20;99.90;;;;;;5018696;28;20063;-71
2023/09/11 04:29:57;;;;;;;15.20;6.75;;;19.10;99.90;;;;;;5013498;28;20466;-70
2023/09/11 04:32:22;;;;;;;13.73;7.82;;;19.10;99.90;;;;;;5013082;28;20069;-71
2023/09/11 04:34:48;;;;;;;14.60;7.80;;;19.10;99.90;;;;;;5015255;28;20033;-70
2023/09/11 04:37:16;;;;;;;12.82;7.32;;;19.10;99.90;;;;;;5015704;28;20098;-70
2023/09/11 04:39:42;;;;;;;14.57;7.43;;;19.10;99.90;;;;;;5009866;28;20487;-70
2023/09/11 04:42:07;;;;;;;18.80;7.30;;;19.10;99.90;;;;;;5011089;28;20052;-71
2023/09/11 04:44:33;;;;;;;11.98;7.65;;;19.20;99.90;;;;;;5014264;28;20048;-70
2023/09/11 04:46:59;;;;;;;16.85;7.05;;;19.00;99.90;;;;;;5013965;28;20054;-70
2023/09/11 04:49:24;;;;;;;14.85;7.18;;;19.10;99.90;;;;;;5013714;28;20043;-70
2023/09/11 04:51:50;;;;;;;19.75;7.75;;;19.00;99.90;;;;;;5008717;28;20060;-70
2023/09/11 04:54:15;;;;;;;14.13;7.32;;;19.00;99.90;;;;;;5015397;28;20041;-70
2023/09/11 04:56:41;;;;;;;12.15;7.20;;;19.00;99.90;;;;;;5107385;27;20025;-70
2023/09/11 04:59:06;;;;;;;14.85;7.65;;;19.00;99.90;;;;;;5015100;28;20046;-70
2023/09/11 05:01:33;;;;;;;14.10;8.07;;;19.00;99.90;;;;;;4999323;28;20043;-71
2023/09/11 05:03:58;;;;;;;13.55;7.30;;;19.00;99.90;;;;;;5013079;28;20119;-70
2023/09/11 05:06:24;;;;;;;15.90;7.18;;;19.00;99.90;;;;;;5105116;27;20054;-70
2023/09/11 05:08:51;;;;;;;17.73;8.00;;;18.90;99.90;;;;;;5017684;28;20033;-70
2023/09/11 05:11:16;;;;;;;15.25;8.48;;;18.90;99.90;;;;;;5007037;28;20427;-71
2023/09/11 05:13:42;;;;;;;18.38;8.15;;;19.00;99.90;;;;;;5011443;28;20151;-70
2023/09/11 05:16:07;;;;;;;18.17;8.05;;;19.00;99.90;;;;;;5015498;28;20042;-70
2023/09/11 05:18:33;;;;;;;19.42;8.40;;;18.90;99.90;;;;;;5014675;28;20037;-70
2023/09/11 05:20:59;;;;;;;16.42;7.63;;;18.90;99.90;;;;;;5010636;28;20037;-70
2023/09/11 05:23:24;;;;;;;16.58;8.02;;;18.90;99.90;;;;;;5012949;28;20050;-70
2023/09/11 05:25:50;;;;;;;15.85;7.82;;;18.90;99.90;;;;;;5015058;28;20041;-70
2023/09/11 05:28:15;;;;;;;20.50;8.13;;;18.90;99.90;;;;;;4998504;28;20052;-70
2023/09/11 05:30:41;;;;;;;17.73;9.10;;;18.90;99.90;;;;;;5013161;28;20033;-70
2023/09/11 05:33:06;;;;;;;14.88;7.82;;;18.90;99.90;;;;;;5009627;28;20044;-70
2023/09/11 05:35:32;;;;;;;16.60;7.75;;;18.90;99.90;;;;;;5011744;27;20045;-70
2023/09/11 05:37:58;;;;;;;14.05;7.07;;;18.90;99.90;;;;;;5011803;27;20041;-70
2023/09/11 05:40:23;;;;;;;15.07;7.00;;;18.90;99.90;;;;;;5015963;28;20037;-71
2023/09/11 05:42:49;;;;;;;17.35;8.35;;;18.90;99.90;;;;;;5027728;28;20049;-70
2023/09/11 05:45:15;;;;;;;14.63;7.85;;;18.90;99.90;;;;;;5027733;27;20045;-70
2023/09/11 05:47:40;;;;;;;16.05;7.38;;;19.00;99.90;;;;;;5026532;28;20104;-71
2023/09/11 05:50:07;;;;;;;14.63;8.43;;;19.00;99.90;;;;;;5110719;27;20038;-71
2023/09/11 05:52:33;;;;;;;15.23;7.40;;;19.00;99.90;;;;;;5009771;28;20038;-71
2023/09/11 05:54:58;;;;;;;13.75;7.40;;;19.00;99.90;;;;;;5011866;28;20046;-72
2023/09/11 05:57:24;;;;;;;17.10;8.02;;;19.00;99.90;;;;;;5008759;28;20456;-72
2023/09/11 05:59:50;;;;;;;16.33;7.50;;;19.00;99.90;;;;;;5010050;27;20036;-71
2023/09/11 06:02:15;;;;;;;16.10;7.20;;;19.10;99.90;;;;;;5015117;28;20407;-71
2023/09/11 06:04:41;;;;;;;12.60;7.00;;;19.10;99.90;;;;;;5015370;27;20125;-71
2023/09/11 06:07:06;;;;;;;16.65;7.70;;;19.20;99.90;;;;;;5111786;27;20326;-71
2023/09/11 06:09:32;;;;;;;17.33;7.75;;;19.20;99.90;;;;;;5018549;28;20036;-71
2023/09/11 06:11:58;;;;;;;17.90;8.52;;;19.20;99.90;;;;;;5002689;28;20450;-71
2023/09/11 06:14:23;;;;;;;14.38;7.45;;;19.20;99.90;;;;;;5016671;28;20037;-72
2023/09/11 06:16:50;;;;;;;13.98;7.72;;;19.20;99.90;;;;;;5017154;28;21739;-71
2023/09/11 06:19:16;;;;;;;15.75;7.53;;;19.20;99.90;;;;;;5013248;27;20483;-71
2023/09/11 06:21:45;;;;;;;14.20;7.47;;;19.30;99.90;;;;;;5010232;28;20040;-71
2023/09/11 06:24:11;;;;;;;21.50;7.68;;;19.30;99.90;;;;;;5012991;28;20030;-71
2023/09/11 06:26:36;;;;;;;15.75;7.72;;;19.30;99.90;;;;;;5005784;28;20388;-71
2023/09/11 06:29:02;;;;;;;18.33;7.10;;;19.40;99.90;;;;;;5012171;27;20123;-71
2023/09/11 06:31:29;;;;;;;21.75;8.85;;;19.40;99.90;;;;;;5016022;28;20055;-71
2023/09/11 06:33:54;;;;;;;13.85;8.15;;;19.40;99.90;;;;;;5028584;28;20123;-71
2023/09/11 06:36:20;;;;;;;16.30;6.10;;;19.50;99.90;;;;;;5018622;27;20041;-71
2023/09/11 06:38:45;;;;;;;13.68;7.80;;;19.50;99.90;;;;;;5027711;27;20044;-71
2023/09/11 06:41:11;;;;;;;19.65;8.13;;;19.60;99.90;;;;;;5025057;28;20495;-70
2023/09/11 06:43:37;;;;;;;15.23;7.28;;;19.60;99.90;;;;;;5022339;27;20041;-71
2023/09/11 06:46:03;;;;;;;12.60;7.05;;;19.70;99.90;;;;;;5025120;28;20536;-71
2023/09/11 06:48:29;;;;;;;12.60;6.57;;;19.70;99.90;;;;;;5025349;28;20044;-71
2023/09/11 06:50:54;;;;;;;14.02;6.57;;;19.70;99.90;;;;;;5021363;28;20406;-71
2023/09/11 06:53:20;;;;;;;17.70;7.35;;;19.80;99.90;;;;;;5023410;27;20525;-71
2023/09/11 06:55:49;;;;;;;14.10;7.05;;;19.80;99.90;;;;;;5021253;28;20388;-70
2023/09/11 06:58:15;;;;;;;16.95;6.95;;;19.90;99.90;;;;;;5114990;27;20038;-71
2023/09/11 07:00:41;;;;;;;15.07;7.00;;;19.90;99.90;;;;;;5030941;28;20041;-70
2023/09/11 07:03:06;;;;;;;12.40;6.90;;;20.00;99.90;;;;;;5021428;28;20128;-71
2023/09/11 07:05:32;;;;;;;13.50;7.18;;;20.00;99.90;;;;;;5009940;28;20136;-71
2023/09/11 07:07:58;;;;;;;14.02;6.50;;;20.10;99.90;;;;;;5025799;28;20076;-70
2023/09/11 07:10:24;;;;;;;11.77;7.13;;;20.10;99.90;;;;;;5006160;28;20041;-70
2023/09/11 07:12:50;;;;;;;12.38;6.75;;;20.20;99.90;;;;;;5026604;28;20067;-71
2023/09/11 07:15:19;;;;;;;11.70;7.18;;;20.20;99.90;;;;;;5022624;27;20030;-70
2023/09/11 07:17:45;;;;;;;16.92;8.02;;;20.20;99.90;;;;;;5018703;27;20033;-71
2023/09/11 07:20:12;;;;;;;15.45;7.25;;;20.30;99.90;;;;;;5021380;28;20060;-71
2023/09/11 07:22:38;;;;;;;10.57;6.68;;;20.30;99.90;;;;;;5026117;28;20049;-71
2023/09/11 07:25:04;;;;;;;15.77;8.18;;;20.40;99.90;;;;;;5021665;28;20041;-70
2023/09/11 07:27:35;;;;;;;17.23;7.07;;;20.40;99.90;;;;;;5021770;28;20439;-71
2023/09/11 07:30:01;;;;;;;17.35;7.38;;;20.40;99.90;;;;;;5026395;27;20032;-70
2023/09/11 07:32:29;;;;;;;17.38;8.00;;;20.50;99.90;;;;;;5027014;28;20034;-71
2023/09/11 07:34:55;;;;;;;17.45;7.65;;;20.50;99.90;;;;;;5019039;28;20501;-71
2023/09/11 07:37:21;;;;;;;14.35;7.22;;;20.60;99.90;;;;;;5024360;28;20049;-71
2023/09/11 07:39:46;;;;;;;14.27;7.45;;;20.60;99.90;;;;;;5026919;28;20026;-71
2023/09/11 07:42:12;;;;;;;14.32;6.97;;;20.70;99.90;;;;;;5025482;28;20039;-71
2023/09/11 07:44:37;;;;;;;13.07;7.20;;;20.70;99.90;;;;;;5023161;27;20037;-71
2023/09/11 07:47:03;;;;;;;10.98;5.82;;;20.70;99.90;;;;;;5023850;28;20425;-71
2023/09/11 07:49:29;;;;;;;20.23;7.53;;;20.80;99.90;;;;;;5025889;28;20452;-71
2023/09/11 07:51:54;;;;;;;17.45;7.13;;;20.80;99.90;;;;;;5022343;28;21236;-71
2023/09/11 07:54:21;;;;;;;10.98;6.40;;;20.90;99.90;;;;;;5018042;28;20521;-71
2023/09/11 07:56:46;;;;;;;14.57;6.30;;;20.90;99.90;;;;;;5116778;27;20069;-71
2023/09/11 07:59:12;;;;;;;15.43;6.40;;;21.00;99.90;;;;;;5020432;28;20120;-71
2023/09/11 08:01:37;;;;;;;11.25;5.90;;;21.00;99.90;;;;;;5016554;27;20058;-71
2023/09/11 08:04:04;;;;;;;11.15;6.25;;;21.10;99.90;;;;;;5020807;27;20051;-72
2023/09/11 08:06:30;;;;;;;11.75;7.10;;;21.10;99.90;;;;;;5022740;28;20399;-71
2023/09/11 08:08:56;;;;;;;13.40;6.32;;;21.10;99.90;;;;;;5020321;28;20041;-71
2023/09/11 08:11:26;;;;;;;10.90;5.88;;;21.20;99.90;;;;;;5023800;28;20042;-71
2023/09/11 08:13:53;;;;;;;10.85;6.00;;;21.30;99.90;;;;;;5021231;28;20049;-71
2023/09/11 08:16:19;;;;;;;12.93;6.18;;;21.30;99.90;;;;;;5020052;28;20041;-71
2023/09/11 08:18:44;;;;;;;12.63;6.18;;;21.30;99.90;;;;;;5019812;28;20045;-71
2023/09/11 08:21:11;;;;;;;14.32;6.28;;;21.40;99.90;;;;;;5014054;28;20041;-71
2023/09/11 08:23:36;;;;;;;11.20;6.22;;;21.50;99.90;;;;;;5021533;28;20424;-71
2023/09/11 08:26:02;;;;;;;10.38;6.25;;;21.50;99.90;;;;;;5018093;28;20037;-71
2023/09/11 08:28:28;;;;;;;10.70;6.18;;;21.50;99.90;;;;;;5023500;28;20049;-71
2023/09/11 08:30:54;;;;;;;12.05;5.75;;;21.60;99.90;;;;;;5002137;28;20072;-71
2023/09/11 08:33:24;;;;;;;12.13;5.75;;;21.60;99.90;;;;;;5019993;28;20029;-71
2023/09/11 08:35:49;;;;;;;9.98;5.22;;;21.70;99.90;;;;;;5022834;28;20525;-71
2023/09/11 08:38:18;;;;;;;11.18;4.88;;;21.70;99.90;;;;;;5028935;28;20038;-71
2023/09/11 08:40:44;;;;;;;15.93;6.25;;;21.80;99.90;;;;;;5026437;28;20132;-71
2023/09/11 08:43:10;;;;;;;10.32;5.25;;;21.80;99.90;;;;;;5021682;28;20193;-71
2023/09/11 08:45:37;;;;;;;10.90;5.63;;;21.80;99.90;;;;;;5027248;28;20049;-71
2023/09/11 08:48:08;;;;;;;12.43;5.15;;;21.90;99.90;;;;;;5008994;28;20041;-71
2023/09/11 08:50:35;;;;;;;10.13;5.45;;;22.00;99.90;;;;;;5015554;28;20424;-71
2023/09/11 08:53:02;;;;;;;10.93;5.35;;;22.10;99.90;;;;;;5089839;28;20517;-71
2023/09/11 08:55:29;;;;;;;10.90;5.55;;;22.10;99.90;;;;;;5000207;28;20033;-71
2023/09/11 08:57:59;;;;;;;10.05;5.60;;;22.20;99.90;;;;;;5024502;28;20037;-71
2023/09/11 09:00:27;;;;;;;9.13;5.20;;;22.30;99.90;;;;;;5022769;28;20037;-71
2023/09/11 09:02:53;;;;;;;8.98;5.22;;;22.30;99.90;;;;;;5019501;28;20038;-71
2023/09/11 09:05:20;;;;;;;11.68;5.50;;;22.40;99.90;;;;;;5031958;27;20056;-71
2023/09/11 09:07:47;;;;;;;9.93;5.50;;;22.40;99.90;;;;;;5023983;28;20041;-71
2023/09/11 09:10:13;;;;;;;11.82;5.60;;;22.50;99.90;;;;;;5030388;27;20109;-72
2023/09/11 09:12:39;;;;;;;9.75;5.38;;;22.50;99.90;;;;;;5024486;28;20045;-71
2023/09/11 09:15:06;;;;;;;13.48;6.28;;;22.60;99.90;;;;;;5019829;28;20034;-71
2023/09/11 09:17:32;;;;;;;11.73;6.05;;;22.60;99.90;;;;;;5021026;28;20084;-71
2023/09/11 09:19:57;;;;;;;9.75;6.13;;;22.70;99.90;;;;;;5019986;28;20121;-71
2023/09/11 09:22:23;;;;;;;9.57;5.40;;;22.70;99.90;;;;;;5020351;28;20093;-71
2023/09/11 09:24:51;;;;;;;10.73;5.38;;;22.80;99.90;;;;;;5026495;27;20477;-72
2023/09/11 09:27:18;;;;;;;10.35;5.45;;;22.90;99.90;;;;;;5029223;27;20044;-71
2023/09/11 09:29:44;;;;;;;14.15;6.10;;;22.90;99.90;;;;;;5029309;28;20094;-71
2023/09/11 09:32:10;;;;;;;11.88;5.88;;;22.90;99.90;;;;;;5023862;27;20206;-71
2023/09/11 09:34:41;;;;;;;10.02;5.57;;;23.00;99.90;;;;;;5016791;28;20034;-71
2023/09/11 09:37:15;;;;;;;11.55;5.90;;;23.00;99.90;;;;;;5020502;28;20575;-71
2023/09/11 09:39:41;;;;;;;10.20;5.82;;;23.00;99.90;;;;;;5023247;28;20540;-71
2023/09/11 09:42:07;;;;;;;10.55;5.15;;;23.00;99.90;;;;;;5018400;28;20067;-72
2023/09/11 09:44:37;;;;;;;11.65;5.75;;;23.00;99.90;;;;;;5023673;28;20506;-71
2023/09/11 09:47:13;;;;;;;10.55;6.25;;;23.00;99.90;;;;;;5026744;27;20056;-71
2023/09/11 09:49:47;;;;;;;11.05;5.18;;;23.10;99.90;;;;;;5024236;28;20490;-71
2023/09/11 09:52:14;;;;;;;9.17;5.23;;;23.20;99.90;;;;;;5021098;28;20582;-71
2023/09/11 09:54:49;;;;;;;10.98;5.65;;;23.20;99.90;;;;;;5022375;28;20172;-71
2023/09/11 09:57:17;;;;;;;13.73;6.30;;;23.20;99.90;;;;;;5018542;27;20037;-72
2023/09/11 09:59:48;;;;;;;12.27;5.82;;;23.30;99.90;;;;;;5026869;28;20068;-71
2023/09/11 10:02:13;;;;;;;11.63;5.40;;;23.30;99.90;;;;;;5017501;28;20037;-71
2023/09/11 10:04:39;;;;;;;9.93;5.47;;;23.30;99.90;;;;;;5027423;28;20524;-72
2023/09/11 10:07:06;;;;;;;11.00;5.15;;;23.40;99.90;;;;;;5113446;27;20041;-71
2023/09/11 10:09:33;;;;;;;8.85;4.95;;;23.40;99.90;;;;;;5011566;28;20044;-72
2023/09/11 10:12:03;;;;;;;8.38;4.90;;;23.40;99.90;;;;;;5021712;28;20042;-71
2023/09/11 10:14:29;;;;;;;10.88;5.72;;;23.50;99.90;;;;;;5028704;28;20040;-72
2023/09/11 10:16:57;;;;;;;8.50;4.90;;;23.60;99.90;;;;;;5022779;27;20038;-72
2023/09/11 10:19:24;;;;;;;8.40;5.32;;;23.60;99.90;;;;;;5019648;28;20068;-72
2023/09/11 10:21:49;;;;;;;9.82;5.90;;;23.70;99.90;;;;;;5010864;28;20041;-72
2023/09/11 10:24:15;;;;;;;11.52;5.47;;;23.80;99.90;;;;;;5024822;28;20038;-72
2023/09/11 10:26:49;;;;;;;8.00;5.45;;;23.80;99.90;;;;;;5029521;28;20041;-71
2023/09/11 10:29:24;;;;;;;10.48;5.32;;;23.70;99.90;;;;;;5022778;27;20042;-72
2023/09/11 10:32:01;;;;;;;10.27;5.20;;;23.80;99.90;;;;;;5023173;27;20037;-72
2023/09/11 10:34:27;;;;;;;8.13;5.00;;;23.80;99.90;;;;;;5024492;28;20049;-72
2023/09/11 10:36:58;;;;;;;7.60;5.00;;;23.80;99.90;;;;;;5016686;28;20125;-72
2023/09/11 10:39:24;;;;;;;7.47;5.43;;;23.80;99.90;;;;;;5101682;27;20049;-72
2023/09/11 10:41:50;;;;;;;9.68;5.32;;;23.90;99.90;;;;;;5022075;28;20546;-71
2023/09/11 10:44:16;;;;;;;9.85;5.38;;;23.90;99.90;;;;;;5120471;27;20033;-72
2023/09/11 10:46:51;;;;;;;10.45;5.13;;;23.90;99.90;;;;;;5019133;28;20392;-72
2023/09/11 10:49:23;;;;;;;9.15;5.25;;;24.00;99.90;;;;;;5021796;28;20124;-71
2023/09/11 10:51:49;;;;;;;7.57;4.88;;;24.00;99.90;;;;;;5011280;28;20041;-72
2023/09/11 10:54:23;;;;;;;11.15;4.85;;;24.00;99.90;;;;;;5020886;27;20037;-72
2023/09/11 10:56:50;;;;;;;8.10;5.20;;;24.00;99.90;;;;;;5023389;28;20033;-72
2023/09/11 10:59:16;;;;;;;8.75;5.28;;;24.00;99.90;;;;;;5022923;28;20057;-71
2023/09/11 11:01:45;;;;;;;7.90;5.00;;;24.00;99.90;;;;;;5025712;27;20097;-71
2023/09/11 11:04:14;;;;;;;9.38;5.32;;;24.10;99.90;;;;;;5029426;28;20499;-71
2023/09/11 11:06:46;;;;;;;14.57;6.28;;;24.00;99.90;;;;;;5025714;28;20052;-71
2023/09/11 11:09:33;;;;;;;11.20;5.40;;;24.00;99.90;;;;;;5019375;28;20479;-71
2023/09/11 11:12:07;;;;;;;6.55;4.95;;;24.10;99.90;;;;;;5019542;28;20041;-71
2023/09/11 11:14:33;;;;;;;9.50;5.43;;;24.10;99.90;;;;;;5024578;28;20095;-71
2023/09/11 11:17:03;;;;;;;9.30;5.65;;;24.10;99.90;;;;;;5025077;28;20487;-71
2023/09/11 11:19:34;;;;;;;12.90;5.50;;;24.10;99.90;;;;;;5024930;28;20232;-71
2023/09/11 11:22:01;;;;;;;11.43;5.88;;;24.20;99.90;;;;;;5015726;28;20048;-71
2023/09/11 11:24:34;;;;;;;8.68;5.18;;;24.30;99.90;;;;;;5025610;28;20049;-71
2023/09/11 11:27:01;;;;;;;10.82;5.40;;;24.30;99.90;;;;;;5031243;28;20029;-71
2023/09/11 11:29:28;;;;;;;9.15;5.40;;;24.30;99.90;;;;;;5002679;28;20052;-71
2023/09/11 11:31:56;;;;;;;9.85;5.80;;;24.30;99.90;;;;;;5005269;28;20033;-71
2023/09/11 11:34:31;;;;;;;10.88;5.35;;;24.30;99.90;;;;;;5026224;28;20052;-71
2023/09/11 11:36:58;;;;;;;6.97;5.03;;;24.40;99.90;;;;;;5026926;28;20477;-71
2023/09/11 11:39:27;;;;;;;10.07;6.22;;;24.40;99.90;;;;;;5016835;28;20048;-71
2023/09/11 11:41:54;;;;;;;8.88;5.28;;;24.40;99.90;;;;;;5026413;27;20523;-71
2023/09/11 11:44:21;;;;;;;7.80;4.97;;;24.40;99.90;;;;;;5003487;28;20266;-71
2023/09/11 11:46:47;;;;;;;11.60;5.80;;;24.40;99.90;;;;;;5019961;28;20052;-71
2023/09/11 11:49:18;;;;;;;10.02;5.35;;;24.50;99.90;;;;;;5027887;28;20053;-71
2023/09/11 11:51:44;;;;;;;7.18;5.13;;;24.50;99.90;;;;;;5013526;28;20037;-71
2023/09/11 11:54:23;;;;;;;12.27;5.47;;;24.50;99.90;;;;;;5014812;28;20042;-71
2023/09/11 11:56:57;;;;;;;10.38;5.32;;;24.50;99.90;;;;;;5022001;28;20026;-71
2023/09/11 11:59:29;;;;;;;10.15;5.57;;;24.50;99.90;;;;;;5021685;28;20041;-71
2023/09/11 12:01:54;;;;;;;10.45;6.53;;;24.50;99.90;;;;;;5002360;28;20047;-71
2023/09/11 12:04:20;;;;;;;9.10;4.97;;;24.60;99.90;;;;;;5117408;27;20065;-71
2023/09/11 12:06:46;;;;;;;12.38;5.97;;;24.60;99.90;;;;;;5024747;28;20047;-71
2023/09/11 12:09:18;;;;;;;11.30;5.35;;;24.60;99.90;;;;;;5025882;28;20092;-71
2023/09/11 12:11:45;;;;;;;8.07;4.95;;;24.60;99.90;;;;;;4997302;28;20471;-71
2023/09/11 12:14:15;;;;;;;8.30;4.97;;;24.60;99.90;;;;;;5021872;28;20100;-71
2023/09/11 12:16:41;;;;;;;11.77;5.20;;;24.60;99.90;;;;;;5020006;28;20795;-71
2023/09/11 12:19:07;;;;;;;7.20;4.75;;;24.60;99.90;;;;;;5017501;28;20052;-71
2023/09/11 12:21:33;;;;;;;6.55;4.15;;;24.60;99.90;;;;;;5006034;28;20494;-71
2023/09/11 12:24:00;;;;;;;7.07;3.75;;;24.60;99.90;;;;;;5017271;28;20202;-71
2023/09/11 12:26:27;;;;;;;7.70;3.97;;;24.60;99.90;;;;;;5023298;28;20041;-71
2023/09/11 12:28:54;;;;;;;7.80;4.03;;;24.60;99.90;;;;;;5036767;27;20065;-71
2023/09/11 12:31:20;;;;;;;8.25;3.90;;;24.60;99.90;;;;;;5025023;27;20048;-71
2023/09/11 12:33:52;;;;;;;7.78;3.58;;;24.60;99.90;;;;;;5017981;28;20056;-70
2023/09/11 12:36:21;;;;;;;6.57;3.47;;;24.60;99.90;;;;;;5050063;27;20036;-70